Time;durP1;ratioP1;P1;durP2;ratioP2;P2;SDS_P1;SDS_P2;PMS_P1;PMS_P2;Temp;Humidity;BMP_temperature;BMP_pressure;BME280_temperature;BME280_humidity;BME280_pressure;Samples;Min_cycle;Max_cycle;Signal;HPM_P1;HPM_P2
2023/10/24 00:01:54;;;;;;;1999.90;999.90;;;11.70;99.90;;;;;;5052050;28;20048;-69
2023/10/24 00:04:19;;;;;;;1999.90;999.90;;;11.80;99.90;;;;;;5051667;28;20035;-69
2023/10/24 00:06:45;;;;;;;1999.90;999.90;;;11.70;99.90;;;;;;5046012;28;20040;-69
2023/10/24 00:09:11;;;;;;;1999.90;999.90;;;11.70;99.90;;;;;;5048202;28;20401;-71
2023/10/24 00:11:36;;;;;;;1999.90;999.90;;;11.70;99.90;;;;;;5052079;28;20033;-70
2023/10/24 00:14:02;;;;;;;1999.90;999.90;;;11.70;99.90;;;;;;5049620;28;20311;-69
2023/10/24 00:16:28;;;;;;;1999.90;999.90;;;11.70;99.90;;;;;;5051133;28;20347;-69
2023/10/24 00:18:54;;;;;;;1999.90;999.90;;;11.70;99.90;;;;;;5052282;28;20028;-69
2023/10/24 00:21:19;;;;;;;1999.90;999.90;;;11.80;99.90;;;;;;5056453;28;20052;-70
2023/10/24 00:23:45;;;;;;;1999.90;999.90;;;11.80;99.90;;;;;;5054624;28;20025;-69
2023/10/24 00:26:11;;;;;;;1999.90;999.90;;;11.80;99.90;;;;;;5048241;28;20146;-70
2023/10/24 00:28:36;;;;;;;1999.90;999.90;;;11.80;99.90;;;;;;5045159;28;20034;-70
2023/10/24 00:31:03;;;;;;;1999.90;999.90;;;11.80;99.90;;;;;;5051287;28;20040;-69
2023/10/24 00:33:29;;;;;;;1999.90;999.90;;;11.80;99.90;;;;;;5047641;28;20040;-69
2023/10/24 00:35:55;;;;;;;1999.90;999.90;;;11.80;99.90;;;;;;5052332;28;20029;-70
2023/10/24 00:38:20;;;;;;;1999.90;999.90;;;11.80;99.90;;;;;;5051184;28;20086;-69
2023/10/24 00:40:46;;;;;;;1999.90;999.90;;;11.90;99.90;;;;;;5052809;28;20025;-70
2023/10/24 00:43:12;;;;;;;1999.90;999.90;;;11.90;99.90;;;;;;5050125;28;20130;-76
2023/10/24 00:45:38;;;;;;;1999.90;999.90;;;11.90;99.90;;;;;;5051640;28;20040;-70
2023/10/24 00:48:05;;;;;;;1999.90;999.90;;;11.90;99.90;;;;;;5049354;28;20312;-69
2023/10/24 00:50:31;;;;;;;1999.90;999.90;;;11.90;99.90;;;;;;5050455;28;20440;-70
2023/10/24 00:52:58;;;;;;;1999.90;999.90;;;11.90;99.90;;;;;;5040108;28;20432;-70
2023/10/24 00:55:24;;;;;;;1999.90;999.90;;;12.00;99.90;;;;;;5044645;28;20301;-70
2023/10/24 00:57:51;;;;;;;1999.90;999.90;;;11.90;99.90;;;;;;5051294;28;20091;-70
2023/10/24 01:00:18;;;;;;;1999.90;999.90;;;11.90;99.90;;;;;;5048482;28;20052;-76
2023/10/24 01:02:44;;;;;;;1999.90;999.90;;;12.00;99.90;;;;;;5047844;28;20036;-70
2023/10/24 01:05:11;;;;;;;1999.90;999.90;;;12.00;99.90;;;;;;5043307;28;20033;-70
2023/10/24 01:07:37;;;;;;;1999.90;999.90;;;12.00;99.90;;;;;;5048008;28;20112;-70
2023/10/24 01:10:03;;;;;;;1999.90;999.90;;;12.00;99.90;;;;;;5049879;28;20121;-71
2023/10/24 01:12:28;;;;;;;1999.90;999.90;;;12.00;99.90;;;;;;5050464;28;20017;-70
2023/10/24 01:14:54;;;;;;;1999.90;999.90;;;12.00;99.90;;;;;;5052343;28;20029;-69
2023/10/24 01:17:20;;;;;;;1999.90;999.90;;;12.00;99.90;;;;;;5053195;28;20339;-70
2023/10/24 01:19:45;;;;;;;1999.90;999.90;;;12.00;99.90;;;;;;5053871;28;20328;-70
2023/10/24 01:22:11;;;;;;;1999.90;999.90;;;12.00;99.90;;;;;;5052446;28;20029;-70
2023/10/24 01:24:37;;;;;;;1999.90;999.90;;;12.00;99.90;;;;;;5053338;28;20616;-69
2023/10/24 01:27:03;;;;;;;1999.90;999.90;;;12.10;99.90;;;;;;5050766;28;20029;-70
2023/10/24 01:29:29;;;;;;;1999.90;999.90;;;12.10;99.90;;;;;;5050867;28;20049;-69
2023/10/24 01:31:54;;;;;;;1999.90;999.90;;;12.10;99.90;;;;;;5052503;28;20107;-69
2023/10/24 01:34:20;;;;;;;1999.90;999.90;;;12.10;99.90;;;;;;5049616;28;20033;-70
2023/10/24 01:36:45;;;;;;;1999.90;999.90;;;12.10;99.90;;;;;;5042366;28;20029;-69
2023/10/24 01:39:11;;;;;;;1999.90;999.90;;;12.10;99.90;;;;;;5050923;28;20025;-70
2023/10/24 01:41:37;;;;;;;1999.90;999.90;;;12.10;99.90;;;;;;5048046;28;20017;-70
2023/10/24 01:44:03;;;;;;;1999.90;999.90;;;12.10;99.90;;;;;;5044353;28;20025;-70
2023/10/24 01:46:29;;;;;;;1999.90;999.90;;;12.10;99.90;;;;;;5053572;28;20309;-70
2023/10/24 01:48:55;;;;;;;1999.90;999.90;;;12.20;99.90;;;;;;5051398;28;20119;-70
2023/10/24 01:51:20;;;;;;;1999.90;999.90;;;12.20;99.90;;;;;;5043896;28;20033;-70
2023/10/24 01:53:46;;;;;;;1999.90;999.90;;;12.20;99.90;;;;;;5049900;28;20497;-70
2023/10/24 01:56:13;;;;;;;1999.90;999.90;;;12.20;99.90;;;;;;5053049;28;20029;-70
2023/10/24 01:58:39;;;;;;;1999.90;999.90;;;12.20;99.90;;;;;;5053122;28;20126;-77
2023/10/24 02:01:06;;;;;;;1999.90;999.90;;;12.20;99.90;;;;;;5044689;28;20446;-75
2023/10/24 02:03:32;;;;;;;1999.90;999.90;;;12.20;99.90;;;;;;5052347;28;20035;-70
2023/10/24 02:05:58;;;;;;;1999.90;999.90;;;12.30;99.90;;;;;;5045356;28;20021;-70
2023/10/24 02:08:24;;;;;;;1999.90;999.90;;;12.30;99.90;;;;;;5047963;28;20274;-70
2023/10/24 02:10:50;;;;;;;1999.90;999.90;;;12.30;99.90;;;;;;5044425;28;20033;-70
2023/10/24 02:13:17;;;;;;;1999.90;999.90;;;12.30;99.90;;;;;;5051372;28;20033;-70
2023/10/24 02:15:42;;;;;;;1999.90;999.90;;;12.30;99.90;;;;;;5046807;28;20340;-69
2023/10/24 02:18:08;;;;;;;1999.90;999.90;;;12.30;99.90;;;;;;5046393;28;20022;-77
2023/10/24 02:20:34;;;;;;;1999.90;999.90;;;12.30;99.90;;;;;;5045958;28;20428;-69
2023/10/24 02:23:00;;;;;;;1999.90;999.90;;;12.30;99.90;;;;;;5042474;28;20040;-70
2023/10/24 02:25:25;;;;;;;1999.90;999.90;;;12.30;99.90;;;;;;5045636;28;20025;-69
2023/10/24 02:27:52;;;;;;;1999.90;999.90;;;12.30;99.90;;;;;;5038210;28;20022;-69
2023/10/24 02:30:18;;;;;;;1999.90;999.90;;;12.30;99.90;;;;;;5042746;28;20029;-70
2023/10/24 02:32:44;;;;;;;1999.90;999.90;;;12.30;99.90;;;;;;5045514;28;20025;-70
2023/10/24 02:35:10;;;;;;;1999.90;999.90;;;12.30;99.90;;;;;;5046269;28;20305;-69
2023/10/24 02:37:36;;;;;;;1999.90;999.90;;;12.30;99.90;;;;;;5039455;28;20032;-70
2023/10/24 02:40:03;;;;;;;1999.90;999.90;;;12.30;99.90;;;;;;5051424;28;20021;-70
2023/10/24 02:42:28;;;;;;;1999.90;999.90;;;12.30;99.90;;;;;;5044392;28;20102;-80
2023/10/24 02:44:54;;;;;;;1999.90;999.90;;;12.30;99.90;;;;;;5042359;28;20456;-70
2023/10/24 02:47:20;;;;;;;1999.90;999.90;;;12.30;99.90;;;;;;5045096;28;20323;-70
2023/10/24 02:49:45;;;;;;;1999.90;999.90;;;12.30;99.90;;;;;;5047310;28;20060;-70
2023/10/24 02:52:11;;;;;;;1999.90;999.90;;;12.30;99.90;;;;;;5046126;28;20029;-70
2023/10/24 02:54:37;;;;;;;1999.90;999.90;;;12.30;99.90;;;;;;5054826;28;20051;-70
2023/10/24 02:57:03;;;;;;;1999.90;999.90;;;12.30;99.90;;;;;;5052323;28;20068;-70
2023/10/24 02:59:30;;;;;;;1999.90;999.90;;;12.30;99.90;;;;;;5054800;28;20379;-70
2023/10/24 03:01:56;;;;;;;;;;;12.30;99.90;;;;;;5046124;28;20324;-80
2023/10/24 03:04:21;;;;;;;1999.90;999.90;;;12.30;99.90;;;;;;5050201;28;19909;-70
2023/10/24 03:06:47;;;;;;;1999.90;999.90;;;12.30;99.90;;;;;;5054277;28;20435;-70
2023/10/24 03:09:13;;;;;;;1999.90;999.90;;;12.30;99.90;;;;;;5046286;28;20028;-70
2023/10/24 03:11:38;;;;;;;1999.90;999.90;;;12.30;99.90;;;;;;5053729;28;20021;-70
2023/10/24 03:14:04;;;;;;;1999.90;999.90;;;12.30;99.90;;;;;;5046896;28;20033;-70
2023/10/24 03:16:30;;;;;;;1999.90;999.90;;;12.30;99.90;;;;;;5053340;28;20032;-85
2023/10/24 03:18:56;;;;;;;1999.90;999.90;;;12.30;99.90;;;;;;5046886;28;20057;-70
2023/10/24 03:21:22;;;;;;;1999.90;999.90;;;12.30;99.90;;;;;;5052104;28;20081;-70
2023/10/24 03:23:47;;;;;;;1999.90;999.90;;;12.30;99.90;;;;;;5052969;28;20381;-70
2023/10/24 03:26:13;;;;;;;1999.90;999.90;;;12.30;99.90;;;;;;5052583;28;20415;-70
2023/10/24 03:28:39;;;;;;;1999.90;999.90;;;12.30;99.90;;;;;;5052918;28;20324;-81
2023/10/24 03:31:06;;;;;;;1999.90;999.90;;;12.20;99.90;;;;;;5052879;28;20025;-69
2023/10/24 03:33:33;;;;;;;1999.90;999.90;;;12.20;99.90;;;;;;5048206;28;20412;-70
2023/10/24 03:35:59;;;;;;;;;;;12.20;99.90;;;;;;5048760;28;20030;-79
2023/10/24 03:38:26;;;;;;;1999.90;999.90;;;12.20;99.90;;;;;;5051197;28;20314;-70
2023/10/24 03:40:53;;;;;;;1999.90;999.90;;;12.20;99.90;;;;;;5052409;28;20051;-69
2023/10/24 03:43:19;;;;;;;1999.90;999.90;;;12.20;99.90;;;;;;5048395;28;20435;-70
2023/10/24 03:45:44;;;;;;;1999.90;999.90;;;12.20;99.90;;;;;;5052213;28;20044;-83
2023/10/24 03:48:11;;;;;;;1999.90;999.90;;;12.20;99.90;;;;;;5048593;28;20290;-70
2023/10/24 03:50:38;;;;;;;1999.90;999.90;;;12.20;99.90;;;;;;5044528;28;20128;-70
2023/10/24 03:53:04;;;;;;;1999.90;999.90;;;12.10;99.90;;;;;;5052435;28;20087;-70
2023/10/24 03:55:30;;;;;;;1999.90;999.90;;;12.20;99.90;;;;;;5043618;28;20045;-79
2023/10/24 03:57:56;;;;;;;1999.90;999.90;;;12.10;99.90;;;;;;5051913;28;20039;-70
2023/10/24 04:00:22;;;;;;;1999.90;999.90;;;12.10;99.90;;;;;;5045422;28;20029;-71
2023/10/24 04:02:55;;;;;;;1999.90;999.90;;;12.10;99.90;;;;;;5051722;28;20035;-82
2023/10/24 04:05:21;;;;;;;1999.90;999.90;;;12.00;99.90;;;;;;5048252;28;20397;-72
2023/10/24 04:07:47;;;;;;;1999.90;999.90;;;12.00;99.90;;;;;;5049757;28;20326;-70
2023/10/24 04:10:14;;;;;;;1999.90;999.90;;;12.00;99.90;;;;;;5044286;28;20029;-70
2023/10/24 04:12:40;;;;;;;;;;;12.00;99.90;;;;;;5051836;28;20021;-70
2023/10/24 04:15:06;;;;;;;1999.90;999.90;;;12.00;99.90;;;;;;5048005;28;19963;-71
2023/10/24 04:17:32;;;;;;;1999.90;999.90;;;12.00;99.90;;;;;;5046161;28;20025;-72
2023/10/24 04:19:58;;;;;;;1999.90;999.90;;;12.00;99.90;;;;;;5054463;28;20357;-80
2023/10/24 04:22:24;;;;;;;1999.90;999.90;;;12.00;99.90;;;;;;5043993;28;20025;-71
2023/10/24 04:24:49;;;;;;;1999.90;999.90;;;12.00;99.90;;;;;;5047971;28;20025;-81
2023/10/24 04:27:16;;;;;;;1999.90;999.90;;;12.00;99.90;;;;;;5047809;28;20051;-71
2023/10/24 04:29:42;;;;;;;1999.90;999.90;;;12.00;99.90;;;;;;5048606;28;20051;-70
2023/10/24 04:32:07;;;;;;;1999.90;999.90;;;12.00;99.90;;;;;;5043792;28;20022;-71
2023/10/24 04:34:33;;;;;;;1999.90;999.90;;;11.90;99.90;;;;;;5045626;28;20032;-71
2023/10/24 04:37:00;;;;;;;1999.90;999.90;;;11.90;99.90;;;;;;5046829;28;20025;-70
2023/10/24 04:39:27;;;;;;;1999.90;999.90;;;11.90;99.90;;;;;;5050234;28;20029;-70
2023/10/24 04:41:53;;;;;;;1999.90;999.90;;;11.90;99.90;;;;;;5044565;28;20033;-70
2023/10/24 04:44:19;;;;;;;1999.90;999.90;;;11.90;99.90;;;;;;5041479;28;20033;-70
2023/10/24 04:46:45;;;;;;;1999.90;999.90;;;11.90;99.90;;;;;;5043631;28;20029;-70
2023/10/24 04:49:12;;;;;;;1999.90;999.90;;;11.90;99.90;;;;;;5044741;28;20124;-70
2023/10/24 04:51:37;;;;;;;1999.90;999.90;;;11.90;99.90;;;;;;5050119;28;20072;-70
2023/10/24 04:54:03;;;;;;;1999.90;999.90;;;11.90;99.90;;;;;;5051134;28;20060;-71
2023/10/24 04:56:29;;;;;;;1999.90;999.90;;;11.90;99.90;;;;;;5052051;28;20025;-70
2023/10/24 04:58:56;;;;;;;1999.90;999.90;;;11.90;99.90;;;;;;5041994;28;20033;-70
2023/10/24 05:01:22;;;;;;;;;;;11.90;99.90;;;;;;5040266;28;20025;-70
2023/10/24 05:03:47;;;;;;;1999.90;999.90;;;11.90;99.90;;;;;;5044586;28;19954;-70
2023/10/24 05:06:13;;;;;;;1999.90;999.90;;;11.90;99.90;;;;;;5047893;28;20446;-71
2023/10/24 05:08:39;;;;;;;1999.90;999.90;;;11.90;99.90;;;;;;5052295;28;20021;-82
2023/10/24 05:11:05;;;;;;;1999.90;999.90;;;11.90;99.90;;;;;;5042257;28;20057;-70
2023/10/24 05:13:31;;;;;;;1999.90;999.90;;;11.90;99.90;;;;;;5050927;28;20064;-71
2023/10/24 05:15:57;;;;;;;1999.90;999.90;;;11.90;99.90;;;;;;5049029;28;20028;-70
2023/10/24 05:18:22;;;;;;;1999.90;999.90;;;11.90;99.90;;;;;;5050413;28;20025;-70
2023/10/24 05:20:48;;;;;;;1999.90;999.90;;;11.90;99.90;;;;;;5048731;28;20025;-70
2023/10/24 05:23:14;;;;;;;1999.90;999.90;;;11.80;99.90;;;;;;5051969;28;20316;-71
2023/10/24 05:25:42;;;;;;;1999.90;999.90;;;11.80;99.90;;;;;;5056944;28;20029;-70
2023/10/24 05:28:08;;;;;;;1999.90;999.90;;;11.80;99.90;;;;;;5053085;28;20478;-83
2023/10/24 05:30:36;;;;;;;1999.90;999.90;;;11.80;99.90;;;;;;5051306;28;20140;-70
2023/10/24 05:33:03;;;;;;;1999.90;999.90;;;11.80;99.90;;;;;;5053595;28;20504;-70
2023/10/24 05:35:29;;;;;;;1999.90;999.90;;;11.80;99.90;;;;;;5050967;28;20111;-70
2023/10/24 05:37:55;;;;;;;1999.90;999.90;;;11.80;99.90;;;;;;5052885;28;20112;-70
2023/10/24 05:40:21;;;;;;;1999.90;999.90;;;11.80;99.90;;;;;;5054111;28;20025;-70
2023/10/24 05:42:47;;;;;;;1999.90;999.90;;;11.80;99.90;;;;;;5045726;28;20037;-78
2023/10/24 05:45:13;;;;;;;1999.90;999.90;;;11.80;99.90;;;;;;5052733;28;20362;-70
2023/10/24 05:47:38;;;;;;;1999.90;999.90;;;11.80;99.90;;;;;;5053864;28;20029;-71
2023/10/24 05:50:05;;;;;;;1999.90;999.90;;;11.80;99.90;;;;;;5052640;28;20106;-70
2023/10/24 05:52:31;;;;;;;1999.90;999.90;;;11.80;99.90;;;;;;5049946;28;20029;-70
2023/10/24 05:54:57;;;;;;;1999.90;999.90;;;11.80;99.90;;;;;;5054380;28;20095;-83
2023/10/24 05:57:23;;;;;;;1999.90;999.90;;;11.80;99.90;;;;;;5052433;28;20021;-70
2023/10/24 05:59:50;;;;;;;1999.90;999.90;;;11.80;99.90;;;;;;5056428;28;20029;-70
2023/10/24 06:02:15;;;;;;;1999.90;999.90;;;11.80;99.90;;;;;;5055161;28;20028;-70
2023/10/24 06:04:41;;;;;;;1999.90;999.90;;;11.80;99.90;;;;;;5046146;28;20419;-71
2023/10/24 06:07:07;;;;;;;1999.90;999.90;;;11.70;99.90;;;;;;5047545;28;20108;-70
2023/10/24 06:09:33;;;;;;;1999.90;999.90;;;11.70;99.90;;;;;;5050878;28;20355;-71
2023/10/24 06:11:58;;;;;;;1999.90;999.90;;;11.70;99.90;;;;;;5053957;28;20086;-83
2023/10/24 06:14:24;;;;;;;1999.90;999.90;;;11.70;99.90;;;;;;5052129;28;20037;-70
2023/10/24 06:16:50;;;;;;;1999.90;999.90;;;11.70;99.90;;;;;;5055138;28;20029;-70
2023/10/24 06:19:15;;;;;;;1999.90;999.90;;;11.70;99.90;;;;;;5051052;28;20110;-85
2023/10/24 06:21:41;;;;;;;1999.90;999.90;;;11.70;99.90;;;;;;5049039;28;20443;-71
2023/10/24 06:24:07;;;;;;;1999.90;999.90;;;11.70;99.90;;;;;;5049644;28;20063;-70
2023/10/24 06:26:32;;;;;;;1999.90;999.90;;;11.70;99.90;;;;;;5047915;28;20035;-70
2023/10/24 06:28:58;;;;;;;1999.90;999.90;;;11.70;99.90;;;;;;5049445;28;20320;-70
2023/10/24 06:31:26;;;;;;;1999.90;999.90;;;11.60;99.90;;;;;;5052786;28;20025;-70
2023/10/24 06:33:52;;;;;;;1999.90;999.90;;;11.60;99.90;;;;;;5056901;28;20079;-71
2023/10/24 06:36:18;;;;;;;1999.90;999.90;;;11.60;99.90;;;;;;5053719;28;20033;-70
2023/10/24 06:38:43;;;;;;;1999.90;999.90;;;11.60;99.90;;;;;;5050119;28;20059;-71
2023/10/24 06:41:09;;;;;;;1999.90;999.90;;;11.60;99.90;;;;;;5048921;28;20358;-70
2023/10/24 06:43:35;;;;;;;1999.90;999.90;;;11.60;99.90;;;;;;5048718;28;20106;-70
2023/10/24 06:46:04;;;;;;;1999.90;999.90;;;11.60;99.90;;;;;;5055478;28;20364;-70
2023/10/24 06:48:31;;;;;;;1999.90;999.90;;;11.60;99.90;;;;;;5048141;28;20064;-71
2023/10/24 06:50:57;;;;;;;1999.90;999.90;;;11.50;99.90;;;;;;5049090;28;20066;-70
2023/10/24 06:53:22;;;;;;;1999.90;999.90;;;11.50;99.90;;;;;;5054640;28;20033;-70
2023/10/24 06:55:48;;;;;;;1999.90;999.90;;;11.50;99.90;;;;;;5055974;28;20577;-70
2023/10/24 06:58:14;;;;;;;1999.90;999.90;;;11.50;99.90;;;;;;5056643;28;20412;-70
2023/10/24 07:00:39;;;;;;;1999.90;999.90;;;11.50;99.90;;;;;;5056272;28;20020;-70
2023/10/24 07:03:05;;;;;;;1999.90;999.90;;;11.50;99.90;;;;;;5055118;28;20312;-83
2023/10/24 07:05:32;;;;;;;1999.90;999.90;;;11.50;99.90;;;;;;5057403;28;20112;-72
2023/10/24 07:07:58;;;;;;;;;;;11.50;99.90;;;;;;5061637;28;20045;-71
2023/10/24 07:10:24;;;;;;;1999.90;999.90;;;11.50;99.90;;;;;;5058890;28;20347;-70
2023/10/24 07:12:49;;;;;;;1999.90;999.90;;;11.50;99.90;;;;;;5051905;28;21515;-81
2023/10/24 07:15:15;;;;;;;1999.90;999.90;;;11.50;99.90;;;;;;5043819;28;21625;-70
2023/10/24 07:17:41;;;;;;;1999.90;999.90;;;11.50;99.90;;;;;;5050038;28;20111;-70
2023/10/24 07:20:07;;;;;;;1999.90;999.90;;;11.50;99.90;;;;;;5061912;28;20112;-70
2023/10/24 07:22:33;;;;;;;1999.90;999.90;;;11.50;99.90;;;;;;5056016;28;20443;-71
2023/10/24 07:24:58;;;;;;;1999.90;999.90;;;11.50;99.90;;;;;;5051488;28;20108;-70
2023/10/24 07:27:24;;;;;;;1999.90;999.90;;;11.50;99.90;;;;;;5047862;28;20121;-70
2023/10/24 07:29:50;;;;;;;1999.90;999.90;;;11.40;99.90;;;;;;5055034;28;20311;-84
2023/10/24 07:32:15;;;;;;;1999.90;999.90;;;11.40;99.90;;;;;;5054758;28;20024;-70
2023/10/24 07:34:41;;;;;;;1999.90;999.90;;;11.40;99.90;;;;;;5050723;28;20047;-70
2023/10/24 07:37:10;;;;;;;1999.90;999.90;;;11.40;99.90;;;;;;5045158;28;20047;-71
2023/10/24 07:39:36;;;;;;;1999.90;999.90;;;11.50;99.90;;;;;;5049726;28;20400;-71
2023/10/24 07:42:02;;;;;;;1999.90;999.90;;;11.50;99.90;;;;;;5051095;28;20052;-70
2023/10/24 07:44:28;;;;;;;1999.90;999.90;;;11.50;99.90;;;;;;5051726;28;20024;-70
2023/10/24 07:46:54;;;;;;;1999.90;999.90;;;11.60;99.90;;;;;;5051855;28;20685;-70
2023/10/24 07:49:20;;;;;;;1999.90;999.90;;;11.70;99.90;;;;;;5047855;28;20122;-70
2023/10/24 07:51:45;;;;;;;1999.90;999.90;;;11.80;99.90;;;;;;5048654;28;20037;-79
2023/10/24 07:54:12;;;;;;;1999.90;999.90;;;11.80;99.90;;;;;;5052208;28;20035;-70
2023/10/24 07:56:41;;;;;;;1999.90;999.90;;;11.80;99.90;;;;;;5051439;28;20033;-82
2023/10/24 07:59:08;;;;;;;1999.90;999.90;;;11.80;99.90;;;;;;5050703;28;20104;-70
2023/10/24 08:01:34;;;;;;;1999.90;999.90;;;11.80;99.90;;;;;;5052823;28;20040;-69
2023/10/24 08:04:00;;;;;;;1999.90;999.90;;;11.80;99.90;;;;;;5054875;28;20529;-70
2023/10/24 08:06:26;;;;;;;1999.90;999.90;;;11.80;99.90;;;;;;5052333;28;20033;-70
2023/10/24 08:08:53;;;;;;;1999.90;999.90;;;11.80;99.90;;;;;;5047689;28;20036;-70
2023/10/24 08:11:18;;;;;;;1999.90;999.90;;;11.80;99.90;;;;;;5051527;28;20056;-70
2023/10/24 08:13:44;;;;;;;1999.90;999.90;;;11.90;99.90;;;;;;5051378;28;20452;-69
2023/10/24 08:16:10;;;;;;;1999.90;999.90;;;11.90;99.90;;;;;;5047456;28;20060;-70
2023/10/24 08:18:37;;;;;;;1999.90;999.90;;;11.90;99.90;;;;;;5047372;28;20065;-70
2023/10/24 08:21:03;;;;;;;1999.90;999.90;;;11.90;99.90;;;;;;5046137;28;20052;-69
2023/10/24 08:23:29;;;;;;;1999.90;999.90;;;11.90;99.90;;;;;;5052510;28;20350;-69
2023/10/24 08:25:56;;;;;;;1999.90;999.90;;;12.00;99.90;;;;;;5042693;28;20433;-69
2023/10/24 08:28:22;;;;;;;1999.90;999.90;;;12.00;99.90;;;;;;5051340;28;20021;-70
2023/10/24 08:30:48;;;;;;;1999.90;999.90;;;12.10;99.90;;;;;;5044922;28;20305;-69
2023/10/24 08:33:15;;;;;;;1999.90;999.90;;;12.10;99.90;;;;;;5045800;28;20033;-69
2023/10/24 08:35:40;;;;;;;;;;;12.10;99.90;;;;;;5047033;28;20096;-69
2023/10/24 08:38:06;;;;;;;1999.90;999.90;;;12.20;99.90;;;;;;5046839;28;20331;-70
2023/10/24 08:40:32;;;;;;;1999.90;999.90;;;12.20;99.90;;;;;;5047766;28;20021;-71
2023/10/24 08:42:58;;;;;;;1999.90;999.90;;;12.20;99.90;;;;;;5041952;28;20320;-70
2023/10/24 08:45:25;;;;;;;1999.90;999.90;;;12.20;99.90;;;;;;5052310;28;20094;-70
2023/10/24 08:47:54;;;;;;;1999.90;999.90;;;12.20;99.90;;;;;;5045616;28;20117;-71
2023/10/24 08:50:19;;;;;;;1999.90;999.90;;;12.30;99.90;;;;;;5047651;28;20041;-70
2023/10/24 08:52:45;;;;;;;1999.90;999.90;;;12.50;99.90;;;;;;5056387;28;20066;-69
2023/10/24 08:55:12;;;;;;;1999.90;999.90;;;12.70;99.90;;;;;;5055698;28;20131;-70
2023/10/24 08:57:45;;;;;;;1999.90;999.90;;;12.80;99.90;;;;;;5057079;28;20025;-70
2023/10/24 09:00:13;;;;;;;1999.90;999.90;;;12.80;99.90;;;;;;5057389;28;20044;-69
2023/10/24 09:02:41;;;;;;;1999.90;999.90;;;12.70;99.90;;;;;;5051666;28;20289;-69
2023/10/24 09:05:11;;;;;;;1999.90;999.90;;;12.70;99.90;;;;;;5057283;28;20425;-69
2023/10/24 09:07:37;;;;;;;1999.90;999.90;;;12.60;99.90;;;;;;5052302;28;20021;-70
2023/10/24 09:10:04;;;;;;;1999.90;999.90;;;12.70;99.90;;;;;;5055442;28;20029;-70
2023/10/24 09:12:30;;;;;;;1999.90;999.90;;;12.80;99.90;;;;;;5054073;28;20033;-69
2023/10/24 09:14:57;;;;;;;1999.90;999.90;;;12.80;99.90;;;;;;5056018;28;20435;-69
2023/10/24 09:17:26;;;;;;;1999.90;999.90;;;12.80;99.90;;;;;;5055519;28;20466;-70
2023/10/24 09:19:55;;;;;;;1999.90;999.90;;;12.80;99.90;;;;;;5056554;28;20036;-71
2023/10/24 09:22:21;;;;;;;1999.90;999.90;;;12.80;99.90;;;;;;5056290;28;20029;-70
2023/10/24 09:24:48;;;;;;;1999.90;999.90;;;12.80;99.90;;;;;;5053037;28;20041;-69
2023/10/24 09:27:14;;;;;;;;;;;12.80;99.90;;;;;;5057340;28;20040;-68
2023/10/24 09:29:40;;;;;;;1999.90;999.90;;;12.80;99.90;;;;;;5056020;28;19908;-69
2023/10/24 09:32:06;;;;;;;1999.90;999.90;;;12.80;99.90;;;;;;5055321;28;20419;-70
2023/10/24 09:34:33;;;;;;;1999.90;999.90;;;12.80;99.90;;;;;;5052249;28;20096;-70
2023/10/24 09:37:07;;;;;;;1999.90;999.90;;;12.80;99.90;;;;;;5050523;28;20029;-77
2023/10/24 09:39:54;;;;;;;1999.90;999.90;;;12.90;99.90;;;;;;5052766;28;20020;-68
2023/10/24 09:42:31;;;;;;;1999.90;999.90;;;12.90;99.90;;;;;;5056088;28;20037;-80
2023/10/24 09:45:02;;;;;;;1999.90;999.90;;;12.90;99.90;;;;;;5055835;28;20025;-69
2023/10/24 09:47:29;;;;;;;1999.90;999.90;;;13.00;99.90;;;;;;5056410;28;20021;-69
2023/10/24 09:49:55;;;;;;;1999.90;999.90;;;12.90;99.90;;;;;;5055785;28;20328;-69
2023/10/24 09:52:27;;;;;;;1999.90;999.90;;;12.90;99.90;;;;;;5055029;28;20170;-68
2023/10/24 09:54:53;;;;;;;1999.90;999.90;;;12.90;99.90;;;;;;5056375;28;20021;-69
2023/10/24 09:57:20;;;;;;;1999.90;999.90;;;12.90;99.90;;;;;;5049352;28;20053;-69
2023/10/24 09:59:47;;;;;;;1999.90;999.90;;;12.90;99.90;;;;;;5057205;28;20029;-69
2023/10/24 10:02:14;;;;;;;1999.90;999.90;;;12.90;99.90;;;;;;5050251;28;20025;-69
2023/10/24 10:04:41;;;;;;;1999.90;999.90;;;12.90;99.90;;;;;;5054583;28;20044;-81
2023/10/24 10:07:10;;;;;;;1999.90;999.90;;;12.90;99.90;;;;;;5045379;28;20017;-69
2023/10/24 10:09:42;;;;;;;1999.90;999.90;;;13.00;99.90;;;;;;5054267;28;20124;-69
2023/10/24 10:12:12;;;;;;;1999.90;999.90;;;13.00;99.90;;;;;;5051866;28;20033;-85
2023/10/24 10:15:02;;;;;;;1999.90;999.90;;;13.00;99.90;;;;;;5048927;28;20021;-69
2023/10/24 10:17:56;;;;;;;1999.90;999.90;;;13.00;99.90;;;;;;5044665;28;20039;-84
2023/10/24 10:20:36;;;;;;;1999.90;999.90;;;13.10;99.90;;;;;;5049213;28;20094;-70
2023/10/24 10:23:30;;;;;;;1999.90;999.90;;;13.10;99.90;;;;;;5049605;28;20408;-69
2023/10/24 10:26:40;;;;;;;1999.90;999.90;;;13.10;99.90;;;;;;5041475;28;20412;-69
2023/10/24 10:29:11;;;;;;;1999.90;999.90;;;13.10;99.90;;;;;;5044201;28;20036;-85
2023/10/24 10:32:22;;;;;;;1999.90;999.90;;;13.10;99.90;;;;;;5049252;28;20028;-69
2023/10/24 10:34:51;;;;;;;1999.90;999.90;;;13.10;99.90;;;;;;5014210;28;20149;-69
2023/10/24 10:37:17;;;;;;;1999.90;999.90;;;13.10;99.90;;;;;;5012729;28;20038;-69
2023/10/24 10:40:00;;;;;;;1999.90;999.90;;;13.10;99.90;;;;;;5017179;28;20034;-69
2023/10/24 10:42:49;;;;;;;1999.90;999.90;;;13.20;99.90;;;;;;5018159;28;20492;-69
2023/10/24 10:45:32;;;;;;;1999.90;999.90;;;13.20;99.90;;;;;;4997517;28;20030;-69
2023/10/24 10:48:04;;;;;;;1999.90;999.90;;;13.10;99.90;;;;;;5027389;28;20169;-69
2023/10/24 10:50:37;;;;;;;1999.90;999.90;;;13.10;99.90;;;;;;5016144;28;20046;-69
2023/10/24 10:53:12;;;;;;;1999.90;999.90;;;13.10;99.90;;;;;;5016111;28;20034;-69
2023/10/24 10:56:11;;;;;;;1999.90;999.90;;;13.10;99.90;;;;;;5017534;28;20357;-69
2023/10/24 10:58:42;;;;;;;1999.90;999.90;;;13.10;99.90;;;;;;5013635;28;20382;-68
2023/10/24 11:01:26;;;;;;;;;;;13.10;99.90;;;;;;4992640;28;20430;-68
2023/10/24 11:03:56;;;;;;;1999.90;999.90;;;13.10;99.90;;;;;;5011491;28;19939;-69
2023/10/24 11:06:26;;;;;;;1999.90;999.90;;;13.00;99.90;;;;;;5013134;28;20139;-69
2023/10/24 11:09:12;;;;;;;1999.90;999.90;;;13.00;99.90;;;;;;5011352;28;20042;-69
2023/10/24 11:11:38;;;;;;;;;;;12.90;99.90;;;;;;5033868;28;20052;-69
2023/10/24 11:14:20;;;;;;;1999.90;999.90;;;12.90;99.90;;;;;;5055966;28;19908;-80
2023/10/24 11:16:48;;;;;;;1999.90;999.90;;;12.90;99.90;;;;;;5048229;28;20137;-69
2023/10/24 11:19:21;;;;;;;1999.90;999.90;;;12.90;99.90;;;;;;5043605;28;20029;-69
2023/10/24 11:21:52;;;;;;;1999.90;999.90;;;13.00;99.90;;;;;;5052939;28;20078;-70
2023/10/24 11:24:22;;;;;;;1999.90;999.90;;;13.00;99.90;;;;;;5046478;28;20112;-80
2023/10/24 11:26:55;;;;;;;1999.90;999.90;;;13.00;99.90;;;;;;5048251;28;20427;-69
2023/10/24 11:29:20;;;;;;;1999.90;999.90;;;13.10;99.90;;;;;;5049306;28;20053;-80
2023/10/24 11:31:47;;;;;;;1999.90;999.90;;;13.10;99.90;;;;;;5051345;28;20056;-69
2023/10/24 11:34:13;;;;;;;1999.90;999.90;;;13.10;99.90;;;;;;5058340;28;20032;-69
2023/10/24 11:36:43;;;;;;;1999.90;999.90;;;13.10;99.90;;;;;;5045239;28;20029;-82
2023/10/24 11:39:09;;;;;;;1999.90;999.90;;;13.10;99.90;;;;;;5047473;28;20055;-69
2023/10/24 11:41:35;;;;;;;1999.90;999.90;;;13.20;99.90;;;;;;5048695;28;20057;-69
2023/10/24 11:44:01;;;;;;;1999.90;999.90;;;13.30;99.90;;;;;;5055216;28;20128;-72
2023/10/24 11:46:27;;;;;;;1999.90;999.90;;;13.40;99.90;;;;;;5049910;28;20459;-69
2023/10/24 11:48:53;;;;;;;1999.90;999.90;;;13.50;99.90;;;;;;5054790;28;20272;-69
2023/10/24 11:51:19;;;;;;;1999.90;999.90;;;13.50;99.90;;;;;;5052693;28;20041;-69
2023/10/24 11:53:44;;;;;;;1999.90;999.90;;;13.60;99.90;;;;;;5055474;28;20342;-68
2023/10/24 11:56:11;;;;;;;1999.90;999.90;;;13.60;99.90;;;;;;5051540;28;20052;-69
2023/10/24 11:58:36;;;;;;;1999.90;999.90;;;13.60;99.90;;;;;;5050022;28;20112;-69
2023/10/24 12:01:03;;;;;;;1999.90;999.90;;;13.60;99.90;;;;;;5048670;28;20143;-68
2023/10/24 12:03:58;;;;;;;1999.90;999.90;;;13.60;99.90;;;;;;5048111;28;20028;-69
2023/10/24 12:06:28;;;;;;;1999.90;999.90;;;13.60;99.90;;;;;;5048509;28;20063;-69